Time;durP1;ratioP1;P1;durP2;ratioP2;P2;SDS_P1;SDS_P2;PMS_P1;PMS_P2;Temp;Humidity;BMP_temperature;BMP_pressure;BME280_temperature;BME280_humidity;BME280_pressure;Samples;Min_cycle;Max_cycle;Signal;HPM_P1;HPM_P2
2023/06/30 00:01:01;;;;;;;;;;;18.80;69.00;;;-151.14;100.00;62537.16;5071980;28;19921;-83
2023/06/30 00:03:30;;;;;;;;;;;18.80;68.90;;;-151.14;100.00;62537.16;5070681;28;19920;-82
2023/06/30 00:05:59;;;;;;;;;;;18.80;68.70;;;-151.14;100.00;62537.16;5072090;28;20212;-83
2023/06/30 00:08:27;;;;;;;;;;;18.80;68.70;;;-151.14;100.00;62537.16;5072195;28;19921;-83
2023/06/30 00:10:55;;;;;;;;;;;18.80;68.50;;;-151.14;100.00;62537.16;5071962;28;19924;-83
2023/06/30 00:13:22;;;;;;;;;;;18.80;68.50;;;-151.14;100.00;62537.16;5070128;28;20116;-82
2023/06/30 00:15:50;;;;;;;;;;;18.80;68.60;;;-151.14;100.00;62537.16;5070601;28;19921;-82
2023/06/30 00:18:18;;;;;;;;;;;18.70;68.70;;;-151.14;100.00;62537.16;5072094;28;19925;-83
2023/06/30 00:20:46;;;;;;;;;;;18.70;68.80;;;-151.14;100.00;62537.16;5071885;28;19921;-82
2023/06/30 00:23:15;;;;;;;;;;;18.70;68.80;;;-151.14;100.00;62537.16;5069865;28;19927;-82
2023/06/30 00:25:43;;;;;;;;;;;18.80;68.70;;;-151.14;100.00;62537.16;5083530;28;19927;-82
2023/06/30 00:28:11;;;;;;;;;;;18.70;68.50;;;-151.14;100.00;62537.16;5092060;28;20097;-83
2023/06/30 00:30:39;;;;;;;;;;;18.80;68.40;;;-151.14;100.00;62537.16;5090647;28;20121;-82
2023/06/30 00:33:07;;;;;;;;;;;18.70;68.30;;;-151.14;100.00;62537.16;5090192;28;19920;-82
2023/06/30 00:35:35;;;;;;;;;;;18.70;68.20;;;-151.14;100.00;62537.16;5090357;28;19942;-83
2023/06/30 00:38:03;;;;;;;;;;;18.70;68.30;;;-151.14;100.00;62537.16;5091770;28;20112;-82
2023/06/30 00:40:32;;;;;;;;;;;18.70;68.40;;;-151.14;100.00;62537.16;5090439;28;19920;-83
2023/06/30 00:43:00;;;;;;;;;;;18.70;68.40;;;-151.14;100.00;62537.16;5089929;28;19927;-83
2023/06/30 00:45:28;;;;;;;;;;;18.70;68.40;;;-151.14;100.00;62537.16;5090471;28;19926;-82
2023/06/30 00:47:56;;;;;;;;;;;18.70;68.50;;;-151.14;100.00;62537.16;5091655;28;20227;-83
2023/06/30 00:50:24;;;;;;;;;;;18.70;68.50;;;-151.14;100.00;62537.16;5090536;28;19930;-82
2023/06/30 00:52:52;;;;;;;;;;;18.60;68.30;;;-151.14;100.00;62537.16;5089848;28;19920;-82
2023/06/30 00:55:20;;;;;;;;;;;18.60;68.40;;;-151.14;100.00;62537.16;5090495;28;19920;-82
2023/06/30 00:57:50;;;;;;;;;;;18.70;68.50;;;-151.14;100.00;62537.16;5091372;28;20358;-82
2023/06/30 01:00:19;;;;;;;;;;;18.60;68.40;;;-151.14;100.00;62537.16;5090375;28;20208;-82
2023/06/30 01:02:51;;;;;;;;;;;18.60;68.40;;;-151.14;100.00;62537.16;5089516;28;19920;-82
2023/06/30 01:05:24;;;;;;;;;;;18.60;68.50;;;-151.14;100.00;62537.16;5090195;28;20208;-82
2023/06/30 01:07:56;;;;;;;;;;;18.60;68.30;;;-151.14;100.00;62537.16;5091411;28;20212;-83
2023/06/30 01:10:26;;;;;;;;;;;18.60;68.20;;;-151.14;100.00;62537.16;5107240;28;20305;-82
2023/06/30 01:12:55;;;;;;;;;;;18.60;68.30;;;-151.14;100.00;62537.16;5106522;28;19920;-82
2023/06/30 01:15:23;;;;;;;;;;;18.60;68.40;;;-151.14;100.00;62537.16;5107197;28;19920;-82
2023/06/30 01:17:54;;;;;;;;;;;18.60;68.50;;;-151.14;100.00;62537.16;5090018;28;19920;-82
2023/06/30 01:20:22;;;;;;;;;;;18.60;68.40;;;-151.14;100.00;62537.16;5091178;28;19920;-82
2023/06/30 01:22:51;;;;;;;;;;;18.60;68.40;;;-151.14;100.00;62537.16;5090586;28;19920;-82
2023/06/30 01:25:20;;;;;;;;;;;18.60;68.30;;;-151.14;100.00;62537.16;5089923;28;20233;-82
2023/06/30 01:27:49;;;;;;;;;;;18.60;68.20;;;-151.14;100.00;62537.16;5094658;28;19926;-83
2023/06/30 01:30:18;;;;;;;;;;;18.60;68.20;;;-151.14;100.00;62537.16;5093792;28;20111;-82
2023/06/30 01:32:47;;;;;;;;;;;18.60;68.20;;;-151.14;100.00;62537.16;5092934;28;20234;-82
2023/06/30 01:35:15;;;;;;;;;;;18.60;68.30;;;-151.14;100.00;62537.16;5094581;28;19920;-83
2023/06/30 01:37:42;;;;;;;;;;;18.60;68.20;;;-151.14;100.00;62537.16;5093564;28;19926;-82
2023/06/30 01:40:11;;;;;;;;;;;18.60;68.80;;;-151.14;100.00;62537.16;5076682;28;19920;-82
2023/06/30 01:42:39;;;;;;;;;;;18.60;68.10;;;-151.14;100.00;62537.16;5094004;28;19926;-81
2023/06/30 01:45:08;;;;;;;;;;;18.60;68.10;;;-151.14;100.00;62537.16;5076872;28;19927;-83
2023/06/30 01:47:37;;;;;;;;;;;18.50;68.40;;;-151.14;100.00;62537.16;5093425;28;19928;-81
2023/06/30 01:50:06;;;;;;;;;;;18.60;68.30;;;-151.14;100.00;62537.16;5094548;28;19920;-82
2023/06/30 01:52:34;;;;;;;;;;;18.60;68.10;;;-151.14;100.00;62537.16;5092569;28;19926;-82
2023/06/30 01:55:03;;;;;;;;;;;18.60;68.20;;;-151.14;100.00;62537.16;5094704;28;20111;-83
2023/06/30 01:57:31;;;;;;;;;;;18.50;68.20;;;-151.14;100.00;62537.16;5076203;28;19927;-82
2023/06/30 01:59:59;;;;;;;;;;;18.50;68.00;;;-151.14;100.00;62537.16;5093288;28;20094;-82
2023/06/30 02:02:26;;;;;;;;;;;18.50;67.90;;;-151.14;100.00;62537.16;5093551;28;19927;-82
2023/06/30 02:04:56;;;;;;;;;;;18.50;67.70;;;-151.14;100.00;62537.16;5092983;28;19920;-82
2023/06/30 02:07:24;;;;;;;;;;;18.50;67.80;;;-151.14;100.00;62537.16;5092786;28;19927;-82
2023/06/30 02:09:52;;;;;;;;;;;18.50;67.70;;;-151.14;100.00;62537.16;5110160;28;19924;-82
2023/06/30 02:12:19;;;;;;;;;;;18.50;67.90;;;-151.14;100.00;62537.16;5092220;28;19934;-82
2023/06/30 02:14:47;;;;;;;;;;;18.50;67.80;;;-151.14;100.00;62537.16;5093068;28;19920;-82
2023/06/30 02:17:15;;;;;;;;;;;18.50;67.80;;;-151.14;100.00;62537.16;5092668;28;19920;-83
2023/06/30 02:19:46;;;;;;;;;;;18.50;67.80;;;-151.14;100.00;62537.16;5076099;28;19920;-82
2023/06/30 02:22:15;;;;;;;;;;;18.40;67.80;;;-151.14;100.00;62537.16;5092227;28;19920;-82
2023/06/30 02:24:43;;;;;;;;;;;18.40;68.20;;;-151.14;100.00;62537.16;5092929;28;19920;-82
2023/06/30 02:27:11;;;;;;;;;;;18.40;68.10;;;-151.14;100.00;62537.16;5092647;28;20109;-82
2023/06/30 02:29:39;;;;;;;;;;;18.40;68.00;;;-151.14;100.00;62537.16;5092261;28;19920;-82
2023/06/30 02:32:08;;;;;;;;;;;18.40;67.90;;;-151.14;100.00;62537.16;5090846;28;19920;-82
2023/06/30 02:34:36;;;;;;;;;;;18.40;67.80;;;-151.14;100.00;62537.16;5092156;28;19922;-82
2023/06/30 02:37:05;;;;;;;;;;;18.40;68.00;;;-151.14;100.00;62537.16;5092226;28;19925;-82
2023/06/30 02:39:34;;;;;;;;;;;18.40;67.80;;;-151.14;100.00;62537.16;5092457;28;19927;-82
2023/06/30 02:42:02;;;;;;;;;;;18.40;67.90;;;-151.14;100.00;62537.16;5093112;28;19920;-82
2023/06/30 02:44:30;;;;;;;;;;;18.40;67.60;;;-151.14;100.00;62537.16;5092468;28;19942;-82
2023/06/30 02:46:58;;;;;;;;;;;18.40;67.50;;;-151.14;100.00;62537.16;5109382;28;19920;-83
2023/06/30 02:49:26;;;;;;;;;;;18.40;67.40;;;-151.14;100.00;62537.16;5093488;28;19920;-82
2023/06/30 02:51:54;;;;;;;;;;;18.40;67.50;;;-151.14;100.00;62537.16;5091854;28;19920;-82
2023/06/30 02:54:22;;;;;;;;;;;18.40;67.50;;;-151.14;100.00;62537.16;5092373;28;19920;-82
2023/06/30 02:56:52;;;;;;;;;;;18.40;67.40;;;-151.14;100.00;62537.16;5075036;28;19920;-83
2023/06/30 02:59:20;;;;;;;;;;;18.40;67.60;;;-151.14;100.00;62537.16;5092184;28;19922;-82
2023/06/30 03:01:48;;;;;;;;;;;18.40;67.60;;;-151.14;100.00;62537.16;5091695;28;19927;-83
2023/06/30 03:04:16;;;;;;;;;;;18.40;67.30;;;-151.14;100.00;62537.16;5075245;28;19926;-83
2023/06/30 03:06:44;;;;;;;;;;;18.40;67.60;;;-151.14;100.00;62537.16;5075115;28;19926;-82
2023/06/30 03:09:14;;;;;;;;;;;18.40;67.80;;;-151.14;100.00;62537.16;5075080;28;19927;-82
2023/06/30 03:11:42;;;;;;;;;;;18.40;67.60;;;-151.14;100.00;62537.16;5091609;28;20230;-82
2023/06/30 03:14:12;;;;;;;;;;;18.40;67.60;;;-151.14;100.00;62537.16;5108877;28;19920;-83
2023/06/30 03:16:43;;;;;;;;;;;18.40;67.60;;;-151.14;100.00;62537.16;5092026;28;19920;-83
2023/06/30 03:19:12;;;;;;;;;;;18.40;67.80;;;-151.14;100.00;62537.16;5106624;28;20230;-82
2023/06/30 03:21:40;;;;;;;;;;;18.40;67.50;;;-151.14;100.00;62537.16;5074464;28;19920;-82
2023/06/30 03:24:09;;;;;;;;;;;18.40;67.60;;;-151.14;100.00;62537.16;5094658;28;19927;-82
2023/06/30 03:26:37;;;;;;;;;;;18.40;67.60;;;-151.14;100.00;62537.16;5075007;28;19934;-82
2023/06/30 03:29:09;;;;;;;;;;;18.40;67.70;;;-151.14;100.00;62537.16;5108675;28;19936;-82
2023/06/30 03:31:38;;;;;;;;;;;18.40;67.70;;;-151.14;100.00;62537.16;5091186;28;19920;-82
2023/06/30 03:34:06;;;;;;;;;;;18.40;67.60;;;-151.14;100.00;62537.16;5074780;28;19920;-83
2023/06/30 03:36:34;;;;;;;;;;;18.40;67.60;;;-151.14;100.00;62537.16;5074856;28;19920;-82
2023/06/30 03:39:02;;;;;;;;;;;18.40;67.70;;;-151.14;100.00;62537.16;5074883;28;19920;-82
2023/06/30 03:41:30;;;;;;;;;;;18.40;67.80;;;-151.14;100.00;62537.16;5074054;28;19920;-82
2023/06/30 03:43:58;;;;;;;;;;;18.40;67.80;;;-151.14;100.00;62537.16;5108521;28;19938;-81
2023/06/30 03:46:26;;;;;;;;;;;18.40;67.60;;;-151.14;100.00;62537.16;5091408;28;19926;-82
2023/06/30 03:48:55;;;;;;;;;;;18.40;67.70;;;-151.14;100.00;62537.16;5073899;28;20216;-82
2023/06/30 03:51:23;;;;;;;;;;;18.40;67.80;;;-151.14;100.00;62537.16;5091971;28;20234;-82
2023/06/30 03:53:53;;;;;;;;;;;18.40;67.80;;;-151.14;100.00;62537.16;5091312;28;20097;-82
2023/06/30 03:56:22;;;;;;;;;;;18.40;68.00;;;-151.14;100.00;62537.16;5108473;28;20204;-82
2023/06/30 03:58:50;;;;;;;;;;;18.40;67.90;;;-151.14;100.00;62537.16;5091207;28;19926;-82
2023/06/30 04:01:18;;;;;;;;;;;18.50;68.00;;;-151.14;100.00;62537.16;5107782;28;19927;-81
2023/06/30 04:03:46;;;;;;;;;;;18.50;68.10;;;-151.14;100.00;62537.16;5091141;28;19931;-82
2023/06/30 04:06:15;;;;;;;;;;;18.50;68.00;;;-151.14;100.00;62537.16;5092498;28;20124;-82
2023/06/30 04:08:44;;;;;;;;;;;18.50;68.00;;;-151.14;100.00;62537.16;5092239;28;19920;-82
2023/06/30 04:11:11;;;;;;;;;;;18.50;67.90;;;-151.14;100.00;62537.16;5090511;28;19920;-82
2023/06/30 04:13:39;;;;;;;;;;;18.50;68.10;;;-151.14;100.00;62537.16;5092179;28;19926;-82
2023/06/30 04:16:07;;;;;;;;;;;18.40;68.90;;;-151.14;100.00;62537.16;5092201;28;19934;-82
2023/06/30 04:18:35;;;;;;;;;;;18.40;68.20;;;-151.14;100.00;62537.16;5075621;28;19920;-82
2023/06/30 04:21:03;;;;;;;;;;;18.40;68.40;;;-151.14;100.00;62537.16;5090880;28;19926;-82
2023/06/30 04:23:32;;;;;;;;;;;18.40;68.40;;;-151.14;100.00;62537.16;5090195;28;19926;-82
2023/06/30 04:26:01;;;;;;;;;;;18.40;68.50;;;-151.14;100.00;62537.16;5090879;28;19920;-82
2023/06/30 04:28:29;;;;;;;;;;;18.40;68.40;;;-151.14;100.00;62537.16;5107937;28;19920;-82
2023/06/30 04:30:58;;;;;;;;;;;18.40;68.60;;;-151.14;100.00;62537.16;5090892;28;19927;-82
2023/06/30 04:33:26;;;;;;;;;;;18.40;68.90;;;-151.14;100.00;62537.16;5073497;28;19924;-82
2023/06/30 04:35:53;;;;;;;;;;;18.40;69.10;;;-151.14;100.00;62537.16;5091749;28;19920;-81
2023/06/30 04:38:23;;;;;;;;;;;18.40;69.20;;;-151.14;100.00;62537.16;5090804;28;19920;-81
2023/06/30 04:40:52;;;;;;;;;;;18.40;69.00;;;-151.14;100.00;62537.16;5073814;28;19920;-81
2023/06/30 04:43:20;;;;;;;;;;;18.40;69.00;;;-151.14;100.00;62537.16;5089863;28;19928;-81
2023/06/30 04:45:48;;;;;;;;;;;18.50;69.10;;;-151.14;100.00;62537.16;5090646;28;19926;-81
2023/06/30 04:48:16;;;;;;;;;;;18.50;69.20;;;-151.14;100.00;62537.16;5091713;28;20208;-81
2023/06/30 04:50:44;;;;;;;;;;;18.50;69.30;;;-151.14;100.00;62537.16;5090571;28;19924;-81
2023/06/30 04:53:12;;;;;;;;;;;18.50;69.20;;;-151.14;100.00;62537.16;5073082;28;19928;-81
2023/06/30 04:55:40;;;;;;;;;;;18.50;69.30;;;-151.14;100.00;62537.16;5091515;28;19920;-81
2023/06/30 04:58:09;;;;;;;;;;;18.60;69.60;;;-151.14;100.00;62537.16;5090432;28;19920;-81
2023/06/30 05:00:37;;;;;;;;;;;18.60;69.60;;;-151.14;100.00;62537.16;5091295;28;19920;-81
2023/06/30 05:03:05;;;;;;;;;;;18.60;69.40;;;-151.14;100.00;62537.16;5089947;28;19920;-81
2023/06/30 05:05:33;;;;;;;;;;;18.70;69.50;;;-151.14;100.00;62537.16;5090372;28;19926;-81
2023/06/30 05:08:01;;;;;;;;;;;18.70;69.30;;;-151.14;100.00;62537.16;5090381;28;20133;-81
2023/06/30 05:10:29;;;;;;;;;;;18.70;69.40;;;-151.14;100.00;62537.16;5090173;28;19924;-82
2023/06/30 05:12:56;;;;;;;;;;;18.80;69.30;;;-151.14;100.00;62537.16;5089908;28;19920;-81
2023/06/30 05:15:26;;;;;;;;;;;18.80;69.20;;;-151.14;100.00;62537.16;5089919;28;19920;-82
2023/06/30 05:17:54;;;;;;;;;;;18.90;69.20;;;-151.14;100.00;62537.16;5090233;28;20235;-82
2023/06/30 05:20:22;;;;;;;;;;;18.90;69.10;;;-151.14;100.00;62537.16;5091545;28;19926;-82
2023/06/30 05:22:50;;;;;;;;;;;18.90;69.00;;;-151.14;100.00;62537.16;5090645;28;19928;-82
2023/06/30 05:25:17;;;;;;;;;;;19.00;69.00;;;-151.14;100.00;62537.16;5089457;28;19920;-81
2023/06/30 05:27:45;;;;;;;;;;;19.00;68.90;;;-151.14;100.00;62537.16;5073313;28;20113;-81
2023/06/30 05:30:13;;;;;;;;;;;19.10;69.00;;;-151.14;100.00;62537.16;5073093;28;19920;-81
2023/06/30 05:32:43;;;;;;;;;;;19.10;69.00;;;-151.14;100.00;62537.16;5089317;28;19920;-82
2023/06/30 05:35:10;;;;;;;;;;;19.10;68.90;;;-151.14;100.00;62537.16;5090640;28;19920;-82
2023/06/30 05:37:38;;;;;;;;;;;19.10;69.10;;;-151.14;100.00;62537.16;5090103;28;19920;-82
2023/06/30 05:40:07;;;;;;;;;;;19.10;69.10;;;-151.14;100.00;62537.16;5089577;28;19942;-82
2023/06/30 05:42:35;;;;;;;;;;;19.10;69.20;;;-151.14;100.00;62537.16;5072491;28;19920;-82
2023/06/30 05:45:03;;;;;;;;;;;19.10;69.20;;;-151.14;100.00;62537.16;5089710;28;19920;-82
2023/06/30 05:47:31;;;;;;;;;;;19.20;69.40;;;-151.14;100.00;62537.16;5089603;28;19927;-81
2023/06/30 05:50:00;;;;;;;;;;;19.20;69.50;;;-151.14;100.00;62537.16;5089746;28;19927;-82
2023/06/30 05:52:28;;;;;;;;;;;19.20;69.30;;;-151.14;100.00;62537.16;5106192;28;20116;-81
2023/06/30 05:54:56;;;;;;;;;;;19.20;69.30;;;-151.14;100.00;62537.16;5089801;28;20231;-82
2023/06/30 05:57:24;;;;;;;;;;;19.20;69.40;;;-151.14;100.00;62537.16;5072868;28;19934;-82
2023/06/30 05:59:52;;;;;;;;;;;19.20;69.30;;;-151.14;100.00;62537.16;5089614;28;19920;-82
2023/06/30 06:02:20;;;;;;;;;;;19.30;69.50;;;-151.14;100.00;62537.16;5072273;28;19947;-81
2023/06/30 06:04:51;;;;;;;;;;;19.30;69.40;;;-151.14;100.00;62537.16;5090530;28;19920;-81
2023/06/30 06:07:20;;;;;;;;;;;19.30;69.50;;;-151.14;100.00;62537.16;5090837;28;19920;-82
2023/06/30 06:09:48;;;;;;;;;;;19.40;69.50;;;-151.14;100.00;62537.16;5072711;28;19931;-82
2023/06/30 06:12:16;;;;;;;;;;;19.40;69.40;;;-151.14;100.00;62537.16;5089868;28;19920;-81
2023/06/30 06:14:44;;;;;;;;;;;19.40;69.40;;;-151.14;100.00;62537.16;5076074;28;19926;-82
2023/06/30 06:17:12;;;;;;;;;;;19.40;69.40;;;-151.14;100.00;62537.16;5076001;28;19936;-82
2023/06/30 06:19:40;;;;;;;;;;;19.50;69.70;;;-151.14;100.00;62537.16;5076212;28;19920;-82
2023/06/30 06:22:07;;;;;;;;;;;19.50;69.60;;;-151.14;100.00;62537.16;5093492;28;19920;-82
2023/06/30 06:24:37;;;;;;;;;;;19.60;69.50;;;-151.14;100.00;62537.16;5076064;28;19920;-82
2023/06/30 06:27:06;;;;;;;;;;;19.60;69.40;;;-151.14;100.00;62537.16;5075822;28;19920;-82
2023/06/30 06:29:33;;;;;;;;;;;19.60;69.40;;;-151.14;100.00;62537.16;5093980;28;19927;-82
2023/06/30 06:32:01;;;;;;;;;;;19.60;69.30;;;-151.14;100.00;62537.16;5093117;28;19920;-82
2023/06/30 06:34:29;;;;;;;;;;;19.60;69.20;;;-151.14;100.00;62537.16;5093943;28;19927;-82
2023/06/30 06:36:57;;;;;;;;;;;19.70;69.40;;;-151.14;100.00;62537.16;5075739;28;19926;-82
2023/06/30 06:39:25;;;;;;;;;;;19.70;69.20;;;-151.14;100.00;62537.16;5092625;28;19920;-82
2023/06/30 06:41:56;;;;;;;;;;;19.70;69.20;;;-151.14;100.00;62537.16;5091837;28;19920;-82
2023/06/30 06:44:24;;;;;;;;;;;19.70;69.20;;;-151.14;100.00;62537.16;5075789;28;19942;-82
2023/06/30 06:47:30;;;;;;;;;;;19.80;69.20;;;-151.14;100.00;62537.16;5092441;28;19920;-82
2023/06/30 06:49:59;;;;;;;;;;;19.80;69.30;;;-151.14;100.00;62537.16;5093634;28;20230;-82
2023/06/30 06:52:27;;;;;;;;;;;19.80;69.20;;;-151.14;100.00;62537.16;5091903;28;19920;-82
2023/06/30 06:54:55;;;;;;;;;;;19.90;69.10;;;-151.14;100.00;62537.16;5092252;28;19981;-82
2023/06/30 06:57:24;;;;;;;;;;;19.90;69.00;;;-151.14;100.00;62537.16;5075693;28;19920;-82
2023/06/30 06:59:52;;;;;;;;;;;19.90;68.90;;;-151.14;100.00;62537.16;5075517;28;20116;-81
2023/06/30 07:02:19;;;;;;;;;;;20.00;68.90;;;-151.14;100.00;62537.16;5091523;28;19926;-82
2023/06/30 07:04:47;;;;;;;;;;;20.00;68.70;;;-151.14;100.00;62537.16;5093188;28;19926;-81
2023/06/30 07:07:15;;;;;;;;;;;20.00;68.40;;;-151.14;100.00;62537.16;5075467;28;19920;-82
2023/06/30 07:09:43;;;;;;;;;;;20.10;68.60;;;-151.14;100.00;62537.16;5092070;28;19926;-82
2023/06/30 07:12:11;;;;;;;;;;;20.10;68.60;;;-151.14;100.00;62537.16;5091427;28;19927;-82
2023/06/30 07:14:40;;;;;;;;;;;20.10;68.40;;;-151.14;100.00;62537.16;5092167;28;19920;-82
2023/06/30 07:17:08;;;;;;;;;;;20.10;68.40;;;-151.14;100.00;62537.16;5091701;28;19920;-82
2023/06/30 07:19:36;;;;;;;;;;;20.20;68.40;;;-151.14;100.00;62537.16;5092135;28;19970;-82
2023/06/30 07:22:04;;;;;;;;;;;20.20;68.20;;;-151.14;100.00;62537.16;5092258;28;19920;-81
2023/06/30 07:24:32;;;;;;;;;;;20.20;68.10;;;-151.14;100.00;62537.16;5074042;28;19927;-82
2023/06/30 07:27:00;;;;;;;;;;;20.20;67.80;;;-151.14;100.00;62537.16;5091717;28;19926;-81
2023/06/30 07:29:28;;;;;;;;;;;20.20;67.80;;;-151.14;100.00;62537.16;5091805;28;19926;-82
2023/06/30 07:31:57;;;;;;;;;;;20.20;67.90;;;-151.14;100.00;62537.16;5108224;28;19920;-82
2023/06/30 07:34:27;;;;;;;;;;;20.10;68.00;;;-151.14;100.00;62537.16;5091726;28;20119;-82
2023/06/30 07:36:55;;;;;;;;;;;20.10;68.20;;;-151.14;100.00;62537.16;5092737;28;19920;-82
2023/06/30 07:39:23;;;;;;;;;;;20.10;68.20;;;-151.14;100.00;62537.16;5108805;28;19920;-83
2023/06/30 07:41:51;;;;;;;;;;;20.10;68.30;;;-151.14;100.00;62537.16;5074087;28;19921;-82
2023/06/30 07:44:20;;;;;;;;;;;20.10;68.20;;;-151.14;100.00;62537.16;5091752;28;19920;-82
2023/06/30 07:46:48;;;;;;;;;;;20.10;68.10;;;-151.14;100.00;62537.16;5091532;28;19920;-83
2023/06/30 07:49:17;;;;;;;;;;;20.20;67.90;;;-151.14;100.00;62537.16;5091647;28;19925;-82
2023/06/30 07:51:46;;;;;;;;;;;20.20;66.30;;;-151.14;100.00;62537.16;5074212;28;19920;-83
2023/06/30 07:54:16;;;;;;;;;;;20.20;67.20;;;-151.14;100.00;62537.16;5074927;28;21393;-82
2023/06/30 07:56:45;;;;;;;;;;;20.20;68.00;;;-151.14;100.00;62537.16;5091031;28;19920;-82
2023/06/30 07:59:13;;;;;;;;;;;20.20;66.60;;;-151.14;100.00;62537.16;5091272;28;20269;-82
2023/06/30 08:01:41;;;;;;;;;;;20.20;66.40;;;-151.14;100.00;62537.16;5073889;28;20101;-81
2023/06/30 08:04:08;;;;;;;;;;;20.30;66.30;;;-151.14;100.00;62537.16;5092492;28;20109;-83
2023/06/30 08:06:38;;;;;;;;;;;20.30;66.40;;;-151.14;100.00;62537.16;5108239;28;19920;-82
2023/06/30 08:09:05;;;;;;;;;;;20.30;66.40;;;-151.14;100.00;62537.16;5074498;28;19926;-82
2023/06/30 08:11:33;;;;;;;;;;;20.30;67.20;;;-151.14;100.00;62537.16;5090503;28;19920;-82
2023/06/30 08:14:02;;;;;;;;;;;20.30;66.30;;;-151.14;100.00;62537.16;5091039;28;19926;-82
2023/06/30 08:16:30;;;;;;;;;;;20.30;66.30;;;-151.14;100.00;62537.16;5090900;28;19926;-83
2023/06/30 08:18:57;;;;;;;;;;;20.30;66.40;;;-151.14;100.00;62537.16;5074289;28;20208;-82
2023/06/30 08:21:25;;;;;;;;;;;20.30;66.50;;;-151.14;100.00;62537.16;5090618;28;19920;-82
2023/06/30 08:23:54;;;;;;;;;;;20.30;66.50;;;-151.14;100.00;62537.16;5090830;28;19927;-82
2023/06/30 08:26:22;;;;;;;;;;;20.30;67.40;;;-151.14;100.00;62537.16;5092072;28;19942;-82
2023/06/30 08:28:51;;;;;;;;;;;20.30;66.60;;;-151.14;100.00;62537.16;5092099;28;19920;-82
2023/06/30 08:31:19;;;;;;;;;;;20.30;66.70;;;-151.14;100.00;62537.16;5091513;28;19926;-82
2023/06/30 08:33:46;;;;;;;;;;;20.30;66.80;;;-151.14;100.00;62537.16;5092089;28;19920;-82
2023/06/30 08:36:14;;;;;;;;;;;20.20;66.80;;;-151.14;100.00;62537.16;5091561;28;19942;-83
2023/06/30 08:38:42;;;;;;;;;;;20.30;67.10;;;-151.14;100.00;62537.16;5090538;28;19920;-83
2023/06/30 08:41:11;;;;;;;;;;;20.20;67.10;;;-151.14;100.00;62537.16;5090015;28;19920;-82
2023/06/30 08:43:39;;;;;;;;;;;20.20;67.20;;;-151.14;100.00;62537.16;5091768;28;20209;-83
2023/06/30 08:46:08;;;;;;;;;;;20.20;67.30;;;-151.14;100.00;62537.16;5073533;28;19920;-83
2023/06/30 08:48:36;;;;;;;;;;;20.20;67.30;;;-151.14;100.00;62537.16;5090513;28;19920;-82
2023/06/30 08:51:04;;;;;;;;;;;20.20;67.40;;;-151.14;100.00;62537.16;5090266;28;19920;-82
2023/06/30 08:53:32;;;;;;;;;;;20.20;67.40;;;-151.14;100.00;62537.16;5073674;28;19938;-82
2023/06/30 08:56:00;;;;;;;;;;;20.20;67.30;;;-151.14;100.00;62537.16;5090416;28;20333;-83
2023/06/30 08:58:29;;;;;;;;;;;20.20;67.30;;;-151.14;100.00;62537.16;5090329;28;19927;-83
2023/06/30 09:00:57;;;;;;;;;;;20.30;67.50;;;-151.14;100.00;62537.16;5073686;28;20234;-82
2023/06/30 09:03:25;;;;;;;;;;;20.30;67.50;;;-151.14;100.00;62537.16;5072908;28;19926;-83
2023/06/30 09:05:54;;;;;;;;;;;20.30;67.40;;;-151.14;100.00;62537.16;5073529;28;20230;-83
2023/06/30 09:08:23;;;;;;;;;;;20.30;67.50;;;-151.14;100.00;62537.16;5090362;28;19924;-82
2023/06/30 09:10:51;;;;;;;;;;;20.30;67.50;;;-151.14;100.00;62537.16;5091247;28;20112;-83
2023/06/30 09:13:19;;;;;;;;;;;20.20;67.40;;;-151.14;100.00;62537.16;5089537;28;19920;-83
2023/06/30 09:15:48;;;;;;;;;;;20.30;67.60;;;-151.14;100.00;62537.16;5090462;28;19929;-83
2023/06/30 09:18:16;;;;;;;;;;;20.30;67.60;;;-151.14;100.00;62537.16;5089860;28;19934;-83
2023/06/30 09:20:44;;;;;;;;;;;20.30;67.60;;;-151.14;100.00;62537.16;5091447;28;19920;-84
2023/06/30 09:23:12;;;;;;;;;;;20.30;67.60;;;-151.14;100.00;62537.16;5089653;28;20115;-83
2023/06/30 09:25:43;;;;;;;;;;;20.30;67.60;;;-151.14;100.00;62537.16;5090025;28;20212;-83
2023/06/30 09:28:12;;;;;;;;;;;20.30;67.50;;;-151.14;100.00;62537.16;5091278;28;19920;-83
2023/06/30 09:30:41;;;;;;;;;;;20.30;67.50;;;-151.14;100.00;62537.16;5073330;28;20208;-83
2023/06/30 09:33:13;;;;;;;;;;;20.30;67.60;;;-151.14;100.00;62537.16;5089266;28;19927;-83
2023/06/30 09:35:42;;;;;;;;;;;20.30;67.50;;;-151.14;100.00;62537.16;5091020;28;19951;-83
2023/06/30 09:38:11;;;;;;;;;;;20.30;67.70;;;-151.14;100.00;62537.16;5089818;28;19926;-83
2023/06/30 09:40:42;;;;;;;;;;;20.30;67.70;;;-151.14;100.00;62537.16;5089800;28;20094;-83
2023/06/30 09:43:14;;;;;;;;;;;20.20;67.60;;;-151.14;100.00;62537.16;5072390;28;19920;-83
2023/06/30 09:45:43;;;;;;;;;;;20.20;67.60;;;-151.14;100.00;62537.16;5089838;28;19920;-83
2023/06/30 09:48:13;;;;;;;;;;;20.20;67.60;;;-151.14;100.00;62537.16;5092405;28;20161;-84
2023/06/30 09:50:41;;;;;;;;;;;20.20;67.70;;;-151.14;100.00;62537.16;5091685;28;19920;-84
2023/06/30 09:53:09;;;;;;;;;;;20.20;67.80;;;-151.14;100.00;62537.16;5092660;28;19920;-84
2023/06/30 09:55:48;;;;;;;;;;;20.20;67.70;;;-151.14;100.00;62537.16;5094371;28;19920;-84
2023/06/30 09:58:16;;;;;;;;;;;20.20;67.70;;;-151.14;100.00;62537.16;5093013;28;19920;-83
2023/06/30 10:00:45;;;;;;;;;;;20.20;67.70;;;-151.14;100.00;62537.16;5076333;28;19935;-84
2023/06/30 10:03:16;;;;;;;;;;;20.20;67.60;;;-151.14;100.00;62537.16;5075840;28;19920;-84
2023/06/30 10:05:45;;;;;;;;;;;20.20;67.60;;;-151.14;100.00;62537.16;5076645;28;19926;-83
2023/06/30 10:08:13;;;;;;;;;;;20.30;67.70;;;-151.14;100.00;62537.16;5092948;28;19920;-83
2023/06/30 10:10:41;;;;;;;;;;;20.20;67.40;;;-151.14;100.00;62537.16;5110158;28;19928;-83
2023/06/30 10:13:09;;;;;;;;;;;20.30;67.60;;;-151.14;100.00;62537.16;5093600;28;19920;-83
2023/06/30 10:15:37;;;;;;;;;;;20.20;67.50;;;-151.14;100.00;62537.16;5094105;28;19926;-83
2023/06/30 10:18:05;;;;;;;;;;;20.20;67.50;;;-151.14;100.00;62537.16;5110030;28;19920;-83
2023/06/30 10:20:34;;;;;;;;;;;20.20;67.50;;;-151.14;100.00;62537.16;5094074;28;19926;-83
2023/06/30 10:23:02;;;;;;;;;;;20.20;67.50;;;-151.14;100.00;62537.16;5092018;28;19920;-84
2023/06/30 10:25:30;;;;;;;;;;;20.20;67.70;;;-151.14;100.00;62537.16;5092499;28;20116;-83
2023/06/30 10:27:58;;;;;;;;;;;20.20;67.70;;;-151.14;100.00;62537.16;5092939;28;19920;-82
2023/06/30 10:30:26;;;;;;;;;;;20.10;67.70;;;-151.14;100.00;62537.16;5075972;28;19920;-84
2023/06/30 10:32:54;;;;;;;;;;;20.10;67.60;;;-151.14;100.00;62537.16;5092122;28;19920;-83
2023/06/30 10:35:22;;;;;;;;;;;20.10;67.80;;;-151.14;100.00;62537.16;5075818;28;19920;-83
2023/06/30 10:37:52;;;;;;;;;;;20.10;67.80;;;-151.14;100.00;62537.16;5109683;28;19978;-84
2023/06/30 10:40:26;;;;;;;;;;;20.10;67.90;;;-151.14;100.00;62537.16;5093433;28;19921;-83
2023/06/30 10:42:55;;;;;;;;;;;20.10;68.00;;;-151.14;100.00;62537.16;5092237;28;20230;-83
2023/06/30 10:45:27;;;;;;;;;;;20.10;68.80;;;-151.14;100.00;62537.16;5092438;28;19920;-84
2023/06/30 10:47:55;;;;;;;;;;;20.10;68.10;;;-151.14;100.00;62537.16;5092736;28;19926;-83
2023/06/30 10:50:24;;;;;;;;;;;20.10;68.80;;;-151.14;100.00;62537.16;5075720;28;19920;-83
2023/06/30 10:52:54;;;;;;;;;;;20.10;68.00;;;-151.14;100.00;62537.16;5091774;28;19920;-84
2023/06/30 10:55:22;;;;;;;;;;;20.10;67.90;;;-151.14;100.00;62537.16;5095698;28;19920;-83
2023/06/30 10:57:51;;;;;;;;;;;20.10;68.00;;;-151.14;100.00;62537.16;5092386;28;20204;-83
2023/06/30 11:00:21;;;;;;;;;;;20.10;68.00;;;-151.14;100.00;62537.16;5075447;28;19928;-83